createdAt,value
2019-02-07T00:00:40.673Z,10.93
2019-02-07T00:03:08.908Z,10.23
2019-02-07T00:05:37.146Z,11.47
2019-02-07T00:08:05.452Z,10.17
2019-02-07T00:10:33.755Z,9.63
2019-02-07T00:13:02.082Z,11.00
2019-02-07T00:15:30.357Z,10.40
2019-02-07T00:17:58.635Z,10.93
2019-02-07T00:20:27.046Z,12.23
2019-02-07T00:22:55.328Z,10.67
2019-02-07T00:25:23.532Z,10.03
2019-02-07T00:27:52.264Z,10.00
2019-02-07T00:30:21.452Z,10.40
2019-02-07T00:32:49.766Z,10.33
2019-02-07T00:35:18.129Z,10.07
2019-02-07T00:37:47.283Z,10.17
2019-02-07T00:40:17.045Z,9.13
2019-02-07T00:42:45.704Z,10.63
2019-02-07T00:45:14.901Z,9.63
2019-02-07T00:47:43.274Z,9.60
2019-02-07T00:50:12.861Z,9.00
2019-02-07T00:52:41.462Z,9.50
2019-02-07T00:55:11.225Z,9.17
2019-02-07T00:57:39.889Z,8.80
2019-02-07T01:00:12.792Z,9.40
2019-02-07T01:02:41.157Z,10.50
2019-02-07T01:05:10.366Z,9.47
2019-02-07T01:07:38.602Z,9.40
2019-02-07T01:10:08.360Z,10.00
2019-02-07T01:12:36.882Z,9.57
2019-02-07T01:15:06.585Z,9.67
2019-02-07T01:17:34.785Z,10.33
2019-02-07T01:20:04.594Z,10.13
2019-02-07T01:22:32.881Z,9.97
2019-02-07T01:25:01.112Z,8.63
2019-02-07T01:27:29.801Z,9.27
2019-02-07T01:29:58.008Z,10.37
2019-02-07T01:32:26.290Z,9.77
2019-02-07T01:34:54.615Z,10.53
2019-02-07T01:37:22.935Z,9.27
2019-02-07T01:39:51.270Z,10.07
2019-02-07T01:42:19.518Z,9.00
2019-02-07T01:44:48.053Z,9.60
2019-02-07T01:47:16.346Z,9.30
2019-02-07T01:49:44.663Z,10.30
2019-02-07T01:52:12.930Z,9.27
2019-02-07T02:04:30.768Z,9.50
2019-02-07T02:06:58.992Z,9.65
2019-02-07T02:09:27.207Z,8.55
2019-02-07T02:36:30.381Z,9.35
2019-02-07T02:43:53.430Z,9.65
2019-02-07T02:46:21.721Z,10.10
2019-02-07T02:48:49.974Z,9.90
2019-02-07T02:51:18.455Z,9.00
2019-02-07T02:53:46.980Z,10.37
2019-02-07T02:56:15.180Z,10.00
2019-02-07T02:58:43.503Z,9.35
2019-02-07T03:01:16.394Z,9.83
2019-02-07T03:03:46.341Z,10.57
2019-02-07T03:06:34.717Z,9.60
2019-02-07T03:09:16.893Z,10.50
2019-02-07T03:11:55.655Z,10.27
2019-02-07T03:14:25.893Z,8.90
2019-02-07T03:17:14.206Z,10.03
2019-02-07T03:19:53.067Z,9.33
2019-02-07T03:22:25.407Z,10.30
2019-02-07T03:25:07.611Z,9.90
2019-02-07T03:27:43.406Z,10.35
2019-02-07T03:30:30.594Z,10.23
2019-02-07T03:33:00.557Z,10.13
2019-02-07T03:35:30.464Z,9.60
2019-02-07T03:38:03.131Z,9.85
2019-02-07T03:40:49.720Z,10.13
2019-02-07T03:43:22.551Z,9.80
2019-02-07T03:46:02.332Z,9.70
2019-02-07T03:48:26.994Z,10.53
2019-02-07T03:51:02.535Z,8.73
2019-02-07T03:53:32.454Z,9.20
2019-02-07T03:56:19.108Z,10.10
2019-02-07T03:58:55.133Z,10.00
2019-02-07T04:01:41.510Z,10.70
2019-02-07T04:04:17.177Z,9.97
2019-02-07T04:06:47.024Z,10.30
2019-02-07T04:09:29.338Z,9.80
2019-02-07T04:12:10.866Z,9.90
2019-02-07T04:14:40.763Z,10.10
2019-02-07T04:17:19.725Z,10.03
2019-02-07T04:19:49.986Z,9.87
2019-02-07T04:22:22.761Z,9.83
2019-02-07T04:24:55.311Z,9.73
2019-02-07T04:27:31.269Z,9.70
2019-02-07T04:30:13.080Z,9.75
2019-02-07T04:33:01.429Z,9.40
2019-02-07T04:35:31.330Z,9.37
2019-02-07T04:38:04.165Z,10.57
2019-02-07T04:40:34.031Z,10.17
2019-02-07T04:43:12.886Z,10.60
2019-02-07T04:45:59.400Z,10.53
2019-02-07T04:48:32.629Z,10.40
2019-02-07T04:51:02.592Z,9.63
2019-02-07T04:53:47.329Z,11.10
2019-02-07T04:56:23.281Z,9.30
2019-02-07T04:59:11.417Z,11.43
2019-02-07T05:01:41.354Z,11.15
2019-02-07T05:04:11.234Z,10.35
2019-02-07T05:09:40.417Z,10.40
2019-02-07T05:12:16.080Z,10.27
2019-02-07T05:15:02.553Z,10.50
2019-02-07T05:17:32.405Z,10.23
2019-02-07T05:20:07.966Z,11.37
2019-02-07T05:22:50.116Z,11.30
2019-02-07T05:25:19.972Z,10.17
2019-02-07T05:27:52.752Z,10.20
2019-02-07T05:33:00.524Z,10.10
2019-02-07T05:35:30.411Z,10.70
2019-02-07T05:38:05.980Z,10.87
2019-02-07T05:40:41.838Z,10.70
2019-02-07T05:43:11.772Z,10.20
2019-02-07T05:56:08.993Z,11.20
2019-02-07T06:04:19.657Z,11.65
2019-02-07T06:06:55.478Z,11.13
2019-02-07T06:09:28.289Z,10.03
2019-02-07T06:12:16.252Z,11.30
2019-02-07T06:15:02.362Z,10.90
2019-02-07T06:17:32.273Z,11.67
2019-02-07T06:20:07.745Z,10.60
2019-02-07T06:22:40.558Z,10.67
2019-02-07T06:25:13.270Z,10.83
2019-02-07T06:27:43.121Z,11.57
2019-02-07T06:30:26.477Z,11.97
2019-02-07T06:33:12.988Z,11.17
2019-02-07T06:35:58.049Z,12.30
2019-02-07T06:38:43.313Z,11.30
2019-02-07T06:41:15.874Z,11.43
2019-02-07T06:44:02.470Z,11.50
2019-02-07T06:46:47.354Z,11.30
2019-02-07T06:49:19.657Z,11.70
2019-02-07T06:51:49.547Z,13.37
2019-02-07T06:54:22.175Z,12.87
2019-02-07T06:57:10.372Z,13.20
2019-02-07T06:59:40.333Z,12.53
2019-02-07T07:02:10.250Z,13.87
2019-02-07T07:04:52.332Z,13.67
2019-02-07T07:07:31.376Z,11.77
2019-02-07T07:10:03.942Z,10.90
2019-02-07T07:12:36.833Z,12.33
2019-02-07T07:15:08.500Z,13.43
2019-02-07T07:17:54.814Z,12.53
2019-02-07T07:20:27.572Z,13.70
2019-02-07T07:23:00.045Z,12.77
2019-02-07T07:25:46.564Z,12.27
2019-02-07T07:28:19.193Z,12.20
2019-02-07T07:30:49.144Z,12.67
2019-02-07T07:33:21.938Z,12.47
2019-02-07T07:35:51.813Z,13.57
2019-02-07T07:38:24.812Z,13.27
2019-02-07T07:40:54.669Z,13.57
2019-02-07T07:43:24.576Z,12.53
2019-02-07T07:45:57.394Z,13.23
2019-02-07T07:48:42.497Z,12.93
2019-02-07T07:51:12.461Z,13.10
2019-02-07T07:53:58.712Z,12.97
2019-02-07T07:56:31.526Z,14.27
2019-02-07T07:59:01.794Z,13.97
2019-02-07T08:01:37.621Z,13.70
2019-02-07T08:04:07.782Z,13.87
2019-02-07T08:06:46.290Z,14.00
2019-02-07T08:09:19.140Z,14.80
2019-02-07T08:11:54.736Z,14.70
2019-02-07T08:14:24.635Z,13.20
2019-02-07T08:17:09.899Z,14.00
2019-02-07T08:19:57.950Z,13.90
2019-02-07T08:25:13.309Z,13.23
2019-02-07T08:35:30.169Z,13.50
2019-02-07T08:38:06.646Z,13.37
2019-02-07T08:40:39.636Z,12.80
2019-02-07T08:43:09.609Z,12.15
2019-02-07T08:45:55.857Z,12.60
2019-02-07T08:48:25.803Z,13.67
2019-02-07T08:51:16.307Z,13.10
2019-02-07T08:53:49.140Z,12.20
2019-02-07T08:56:19.503Z,13.63
2019-02-07T08:59:04.550Z,13.27
2019-02-07T09:01:34.412Z,12.47
2019-02-07T09:04:10.725Z,12.37
2019-02-07T09:06:57.737Z,12.53
2019-02-07T09:09:33.385Z,13.40
2019-02-07T09:12:08.702Z,11.90
2019-02-07T09:14:44.618Z,12.60
2019-02-07T09:17:17.237Z,12.70
2019-02-07T09:19:56.197Z,13.30
2019-02-07T09:22:42.350Z,12.90
2019-02-07T09:25:27.522Z,12.40
2019-02-07T09:28:14.105Z,11.87
2019-02-07T09:30:44.490Z,11.73
2019-02-07T09:33:14.357Z,12.10
2019-02-07T09:35:44.241Z,11.70
2019-02-07T09:38:14.214Z,11.90
2019-02-07T09:40:47.017Z,11.20
2019-02-07T09:43:16.916Z,11.10
2019-02-07T09:46:05.137Z,12.00
2019-02-07T09:48:40.768Z,11.73
2019-02-07T09:51:16.320Z,12.20
2019-02-07T09:53:46.549Z,10.83
2019-02-07T09:56:32.689Z,11.57
2019-02-07T09:59:19.212Z,11.63
2019-02-07T10:02:04.694Z,11.40
2019-02-07T10:04:37.394Z,11.27
2019-02-07T10:07:13.289Z,12.23
2019-02-07T10:09:59.524Z,12.20
2019-02-07T10:12:35.537Z,11.03
2019-02-07T10:15:06.633Z,11.20
2019-02-07T10:17:36.508Z,11.07
2019-02-07T10:20:24.357Z,11.40
2019-02-07T10:22:57.097Z,10.73
2019-02-07T10:25:27.025Z,11.70
2019-02-07T10:28:15.113Z,10.40
2019-02-07T10:30:50.933Z,10.87
2019-02-07T10:33:29.764Z,11.40
2019-02-07T10:36:16.144Z,11.03
2019-02-07T10:38:58.321Z,10.03
2019-02-07T10:41:28.240Z,10.73
2019-02-07T10:44:15.481Z,10.50
2019-02-07T10:46:45.321Z,11.70
2019-02-07T10:49:15.203Z,10.93
2019-02-07T10:51:48.021Z,11.67
2019-02-07T10:54:20.793Z,10.70
2019-02-07T10:56:50.979Z,10.60
2019-02-07T10:59:29.593Z,10.00
2019-02-07T11:02:09.325Z,11.10
2019-02-07T11:04:51.132Z,11.77
2019-02-07T11:07:33.231Z,11.03
2019-02-07T11:10:03.194Z,11.40
2019-02-07T11:12:48.034Z,11.30
2019-02-07T11:15:24.229Z,10.27
2019-02-07T11:18:03.511Z,10.00
2019-02-07T11:20:39.462Z,11.70
2019-02-07T11:23:27.017Z,9.10
2019-02-07T11:26:03.062Z,10.07
2019-02-07T11:28:39.215Z,9.57
2019-02-07T11:31:18.138Z,10.30
2019-02-07T11:34:03.196Z,11.00
2019-02-07T11:36:42.228Z,10.10
2019-02-07T11:39:19.138Z,9.70
2019-02-07T11:41:51.768Z,10.50
2019-02-07T11:44:30.868Z,10.70
2019-02-07T11:47:05.628Z,9.90
2019-02-07T11:49:33.876Z,11.10
2019-02-07T11:52:06.700Z,9.37
2019-02-07T11:54:36.583Z,10.27
2019-02-07T11:57:23.150Z,10.73
2019-02-07T11:59:56.039Z,10.53
2019-02-07T12:02:37.892Z,10.40
2019-02-07T12:05:09.306Z,10.50
2019-02-07T12:07:56.016Z,10.57
2019-02-07T12:10:28.415Z,11.63
2019-02-07T12:12:58.374Z,10.40
2019-02-07T12:15:31.397Z,10.00
2019-02-07T12:18:04.039Z,9.60
2019-02-07T12:20:34.400Z,10.00
2019-02-07T12:23:10.418Z,10.77
2019-02-07T12:25:42.137Z,9.83
2019-02-07T12:28:18.282Z,9.93
2019-02-07T12:30:48.136Z,10.43
2019-02-07T12:33:18.015Z,9.60
2019-02-07T12:36:03.094Z,9.27
2019-02-07T12:38:36.461Z,9.60
2019-02-07T12:41:10.442Z,10.23
2019-02-07T12:43:58.726Z,9.53
2019-02-07T12:46:34.799Z,9.70
2019-02-07T12:49:04.744Z,9.60
2019-02-07T12:51:34.972Z,9.83
2019-02-07T12:54:20.077Z,10.03
2019-02-07T12:56:49.965Z,9.80
2019-02-07T12:59:25.557Z,9.97
2019-02-07T13:01:58.357Z,9.33
2019-02-07T13:04:28.200Z,9.30
2019-02-07T13:07:06.719Z,10.47
2019-02-07T13:09:35.488Z,9.67
2019-02-07T13:12:16.061Z,9.90
2019-02-07T13:14:54.956Z,10.00
2019-02-07T13:17:33.940Z,9.80
2019-02-07T13:20:06.692Z,10.03
2019-02-07T13:22:48.603Z,9.63
2019-02-07T13:25:20.983Z,9.37
2019-02-07T13:28:07.418Z,9.70
2019-02-07T13:30:40.366Z,9.27
2019-02-07T13:33:16.016Z,9.27
2019-02-07T13:36:02.553Z,9.47
2019-02-07T13:38:37.085Z,10.03
2019-02-07T13:41:07.003Z,9.60
2019-02-07T13:43:53.301Z,9.20
2019-02-07T13:46:25.821Z,8.80
2019-02-07T13:49:22.733Z,8.90
2019-02-07T13:52:08.946Z,8.57
2019-02-07T13:54:44.845Z,8.20
2019-02-07T13:57:17.601Z,8.60
2019-02-07T14:00:04.994Z,8.80
2019-02-07T14:02:35.346Z,8.80
2019-02-07T14:05:15.792Z,9.03
2019-02-07T14:07:48.322Z,7.70
2019-02-07T14:10:30.501Z,8.90
2019-02-07T14:13:00.479Z,9.23
2019-02-07T14:15:39.606Z,8.30
2019-02-07T14:18:21.633Z,8.73
2019-02-07T14:21:00.624Z,8.73
2019-02-07T14:23:45.602Z,10.40
2019-02-07T14:26:24.328Z,10.20
2019-02-07T14:28:54.268Z,10.27
2019-02-07T14:31:34.238Z,9.07
2019-02-07T14:34:06.877Z,9.37
2019-02-07T14:36:48.767Z,8.70
2019-02-07T14:39:19.118Z,8.10
2019-02-07T14:41:52.107Z,9.10
2019-02-07T14:44:30.777Z,8.90
2019-02-07T14:46:59.014Z,8.40
2019-02-07T14:49:27.242Z,9.43
2019-02-07T14:51:55.752Z,9.10
2019-02-07T14:54:24.036Z,9.23
2019-02-07T14:56:52.282Z,9.37
2019-02-07T14:59:20.521Z,10.00
2019-02-07T15:01:49.950Z,9.03
2019-02-07T15:04:18.216Z,10.27
2019-02-07T15:06:46.545Z,9.23
2019-02-07T15:09:15.242Z,8.75
2019-02-07T15:11:43.488Z,8.40
2019-02-07T15:14:11.818Z,8.40
2019-02-07T15:16:40.162Z,8.93
2019-02-07T15:19:08.616Z,9.27
2019-02-07T15:21:36.869Z,8.50
2019-02-07T15:24:08.308Z,8.50
2019-02-07T15:26:35.742Z,7.90
2019-02-07T15:33:58.881Z,8.87
2019-02-07T15:36:27.117Z,7.90
2019-02-07T15:38:55.436Z,8.90
2019-02-07T15:41:24.161Z,9.20
2019-02-07T15:43:52.517Z,8.30
2019-02-07T15:46:20.828Z,7.80
2019-02-07T15:48:49.101Z,9.77
2019-02-07T15:51:17.430Z,8.80
2019-02-07T15:53:45.636Z,9.60
2019-02-07T15:56:13.878Z,8.65
2019-02-07T15:58:46.697Z,9.13
2019-02-07T16:01:16.678Z,8.90
2019-02-07T16:03:46.605Z,8.60
2019-02-07T16:06:14.861Z,8.97
2019-02-07T16:08:43.155Z,9.83
2019-02-07T16:11:11.435Z,8.40
2019-02-07T16:13:39.646Z,9.23
2019-02-07T16:16:07.854Z,9.20
2019-02-07T16:18:36.070Z,8.70
2019-02-07T16:21:04.474Z,8.57
2019-02-07T16:23:32.802Z,9.40
2019-02-07T16:26:01.062Z,9.27
2019-02-07T16:28:29.572Z,10.80
2019-02-07T16:30:57.808Z,9.50
2019-02-07T16:33:26.154Z,12.17
2019-02-07T16:35:54.441Z,10.00
2019-02-07T16:38:22.670Z,10.00
2019-02-07T16:40:50.996Z,11.60
2019-02-07T16:43:19.301Z,10.80
2019-02-07T16:45:47.531Z,11.83
2019-02-07T16:48:15.834Z,10.83
2019-02-07T16:50:44.435Z,10.90
2019-02-07T16:53:12.670Z,9.90
2019-02-07T16:55:41.002Z,10.67
2019-02-07T16:58:09.323Z,11.40
2019-02-07T17:00:37.941Z,10.70
2019-02-07T17:03:06.328Z,11.60
2019-02-07T17:05:34.560Z,12.63
2019-02-07T17:08:02.808Z,10.87
2019-02-07T17:10:32.710Z,11.00
2019-02-07T17:13:01.012Z,10.73
2019-02-07T17:15:29.429Z,11.50
2019-02-07T17:17:57.754Z,11.17
2019-02-07T17:20:27.145Z,11.07
2019-02-07T17:22:55.486Z,12.00
2019-02-07T17:25:24.174Z,12.07
2019-02-07T17:27:52.485Z,12.73
2019-02-07T17:30:21.478Z,12.10
2019-02-07T17:32:50.233Z,10.60
2019-02-07T17:35:18.591Z,12.15
2019-02-07T17:37:46.866Z,11.30
2019-02-07T17:40:16.658Z,12.30
2019-02-07T17:42:44.974Z,12.00
2019-02-07T17:45:17.029Z,12.10
2019-02-07T17:47:45.814Z,11.93
2019-02-07T17:50:15.649Z,12.90
2019-02-07T17:52:43.886Z,12.07
2019-02-07T17:55:13.802Z,12.23
2019-02-07T17:57:42.085Z,14.07
2019-02-07T18:00:13.506Z,14.60
2019-02-07T18:02:42.241Z,12.43
2019-02-07T18:05:10.560Z,12.17
2019-02-07T18:07:38.845Z,13.23
2019-02-07T18:10:11.328Z,12.93
2019-02-07T18:12:39.552Z,12.77
2019-02-07T18:15:08.947Z,13.47
2019-02-07T18:17:37.176Z,12.80
2019-02-07T18:20:06.970Z,12.20
2019-02-07T18:22:35.281Z,13.77
2019-02-07T18:25:04.855Z,13.50
2019-02-07T18:27:33.155Z,13.57
2019-02-07T18:30:01.462Z,13.60
2019-02-07T18:32:29.730Z,14.40
2019-02-07T18:34:58.422Z,12.50
2019-02-07T18:42:21.434Z,14.40
2019-02-07T18:44:49.800Z,14.70
2019-02-07T18:47:18.115Z,14.60
2019-02-07T18:49:46.513Z,14.87
2019-02-07T18:52:15.226Z,15.07
2019-02-07T18:54:43.557Z,16.30
2019-02-07T18:57:11.894Z,14.90
2019-02-07T18:59:40.210Z,16.33
2019-02-07T19:02:08.447Z,14.20
2019-02-07T19:04:36.749Z,14.50
2019-02-07T19:07:05.101Z,15.20
2019-02-07T19:09:33.685Z,14.97
2019-02-07T19:12:01.936Z,15.50
2019-02-07T19:14:30.294Z,16.17
2019-02-07T19:16:58.506Z,15.80
2019-02-07T19:19:26.770Z,16.55
2019-02-07T19:21:57.142Z,16.60
2019-02-07T19:24:25.021Z,17.17
2019-02-07T19:26:53.233Z,16.93
2019-02-07T19:29:21.487Z,17.90
2019-02-07T19:31:49.801Z,14.40
2019-02-07T19:34:18.042Z,16.60
2019-02-07T19:36:46.353Z,16.10
2019-02-07T19:39:14.664Z,17.13
2019-02-07T19:41:42.881Z,17.67
2019-02-07T19:44:11.137Z,18.50
2019-02-07T19:46:39.429Z,17.87
2019-02-07T19:49:07.749Z,18.03
2019-02-07T19:51:35.978Z,18.60
2019-02-07T19:54:04.294Z,19.43
2019-02-07T19:56:32.527Z,17.60
2019-02-07T19:59:01.253Z,16.80
2019-02-07T20:01:29.490Z,17.47
2019-02-07T20:03:58.123Z,17.90
2019-02-07T20:06:26.426Z,17.20
2019-02-07T20:08:54.666Z,17.50
2019-02-07T20:11:23.804Z,18.40
2019-02-07T20:13:52.113Z,18.23
2019-02-07T20:16:20.705Z,17.20
2019-02-07T20:18:49.058Z,18.05
2019-02-07T20:21:17.381Z,18.70
2019-02-07T20:23:45.701Z,19.00
2019-02-07T20:26:13.988Z,18.43
2019-02-07T20:28:42.223Z,17.90
2019-02-07T20:31:12.010Z,18.60
2019-02-07T20:33:40.641Z,18.57
2019-02-07T20:36:08.922Z,20.73
2019-02-07T20:38:37.152Z,20.80
2019-02-07T20:41:06.353Z,17.50
2019-02-07T20:43:34.683Z,19.27
2019-02-07T20:46:03.006Z,20.47
2019-02-07T20:48:31.292Z,18.60
2019-02-07T20:51:05.482Z,18.50
2019-02-07T20:53:33.779Z,19.10
2019-02-07T20:56:02.083Z,20.07
2019-02-07T20:58:30.582Z,19.40
2019-02-07T21:00:58.910Z,18.80
2019-02-07T21:03:27.246Z,19.10
2019-02-07T21:05:55.623Z,19.53
2019-02-07T21:08:23.963Z,20.37
2019-02-07T21:10:52.270Z,19.00
2019-02-07T21:13:20.550Z,19.60
2019-02-07T21:15:48.845Z,19.95
2019-02-07T21:18:17.098Z,19.07
2019-02-07T21:20:45.400Z,21.07
2019-02-07T21:23:13.654Z,19.40
2019-02-07T21:25:46.079Z,20.75
2019-02-07T21:28:14.462Z,20.90
2019-02-07T21:30:42.767Z,20.03
2019-02-07T21:33:11.061Z,19.23
2019-02-07T21:35:39.321Z,20.10
2019-02-07T21:38:07.641Z,19.30
2019-02-07T21:40:35.945Z,21.77
2019-02-07T21:43:04.885Z,20.70
2019-02-07T21:45:34.617Z,21.67
2019-02-07T21:48:03.144Z,21.00
2019-02-07T21:50:31.808Z,21.87
2019-02-07T21:53:00.308Z,20.43
2019-02-07T21:55:29.694Z,22.83
2019-02-07T21:57:58.021Z,24.43
2019-02-07T22:00:27.589Z,22.10
2019-02-07T22:02:55.818Z,23.00
2019-02-07T22:05:24.112Z,23.53
2019-02-07T22:07:52.365Z,21.67
2019-02-07T22:10:20.691Z,22.97
2019-02-07T22:12:48.956Z,23.60
2019-02-07T22:15:18.741Z,21.57
2019-02-07T22:17:47.396Z,21.37
2019-02-07T22:20:17.165Z,21.30
2019-02-07T22:22:49.222Z,22.77
2019-02-07T22:25:15.562Z,20.63
2019-02-07T22:27:43.772Z,22.10
2019-02-07T22:30:25.902Z,20.87
2019-02-07T22:32:54.586Z,21.70
2019-02-07T22:35:22.876Z,24.13
2019-02-07T22:37:51.131Z,24.45
2019-02-07T22:40:20.476Z,20.83
2019-02-07T22:42:48.960Z,22.70
2019-02-07T22:45:17.945Z,22.50
2019-02-07T22:47:46.862Z,22.45
2019-02-07T22:50:22.613Z,21.90
2019-02-07T22:52:56.723Z,21.05
2019-02-07T22:55:21.045Z,20.05
2019-02-07T22:57:49.426Z,21.40
2019-02-07T23:00:31.498Z,20.73
2019-02-07T23:02:59.802Z,20.33
2019-02-07T23:05:28.043Z,19.53
2019-02-07T23:07:56.244Z,22.07
2019-02-07T23:10:24.594Z,21.40
2019-02-07T23:12:52.919Z,21.20
2019-02-07T23:15:21.408Z,21.27
2019-02-07T23:17:49.669Z,21.90
2019-02-07T23:20:18.015Z,20.97
2019-02-07T23:22:46.297Z,19.13
2019-02-07T23:25:14.546Z,20.53
2019-02-07T23:27:42.882Z,21.27
2019-02-07T23:30:12.398Z,20.50
2019-02-07T23:32:40.758Z,19.80
2019-02-07T23:35:09.785Z,19.90
2019-02-07T23:37:38.169Z,20.80
2019-02-07T23:40:11.017Z,20.13
2019-02-07T23:42:39.372Z,19.70
2019-02-07T23:45:09.133Z,19.20
2019-02-07T23:47:37.633Z,19.40
2019-02-07T23:50:06.412Z,20.40
2019-02-07T23:52:34.659Z,19.90
2019-02-07T23:55:03.041Z,19.33
2019-02-07T23:57:31.367Z,20.33
2019-02-07T23:59:59.667Z,19.30
